Airfield :
LOGIN :

Register | Disclaimer

   EN    FR    IT 

 










Legend :    VFR   Marginal VFR   IFR   Intensive IFR   Very Intensive IFR
Visi :
Ceiling :
>= 8 km
>= 3000ft
5 to 8 km
1000 to 3000 ft
1500m to 5 km
500 to 1000 ft
800 to 1500m
200 to 500 ft
< 800m
< 200 ft
Symbols :   Thunderstorms  Fog  Heavy snow  Heavy precipitations  Wind > 20 kt
SIGMETs :     Misc.  Thunderstorms  Icing  Turbulence  Mountain Waves  Volcanic Ashes






- Airport Elevation : -15 ft
- IATA code : RTM


EHRD - Rotterdam Zestienhoven

CURRENT METAR :
  • 012055Z AUTO VRB02KT 9999 OVC046 05/02 Q1019 NOSIG

EXPIRED METARs :
  • 012025Z AUTO 29003KT 260V320 9999 OVC049 05/02 Q1019 NOSIG
  • 011955Z AUTO 30005KT 260V330 9999 FEW023 BKN044 OVC048 05/02 Q1019 NOSIG
  • 011925Z AUTO 30005KT 270V340 9999 BKN022 BKN030 OVC047 05/02 Q1019 NOSIG
  • 011855Z AUTO 30004KT 280V350 9999 OVC046 05/02 Q1019 NOSIG
  • 011825Z AUTO 31004KT 9999 OVC044 05/02 Q1019 NOSIG

TAF TAF EHRD
Valid from the 01 at 18:00 until the 03 at 00:00 UTC


011714Z 0118/0224 24005KT 9999 SCT025
PROB30
TEMPO 0200/0206 2000 MIFG
BECMG 0208/0211 26015G25KT
BECMG 0216/0219 23012KT
PROB30
TEMPO 0216/0224 7000 -SHRA SCT025TCU BKN030
BECMG 0220/0223 30006KT



MET'MAP, your aeronautical weather chart ! - Copyright ORBIFLY December 2007 - Disclaimer

ORBIFLY MET'MAP TEAM :

Programming & Development : Alexandra Zaïnal
Concept & original design : Baudouin d'Aumeries
Assistance for programming : Marc-Olivier Méhu
Technical & hardware support : Manuel Goepfert

Contact : metmap@orbifly.com




SOURCES & CREDITS :

   NOAA